sensor_id;sensor_type;location;lat;lon;timestamp;P1;durP1;ratioP1;P2;durP2;ratioP2
37677;SDS011;23517;50.390;8.616;2022-07-21T00:00:18;12.52;;;9.52;;
37677;SDS011;23517;50.390;8.616;2022-07-21T00:02:47;14.98;;;9.98;;
37677;SDS011;23517;50.390;8.616;2022-07-21T00:05:15;14.80;;;9.73;;
37677;SDS011;23517;50.390;8.616;2022-07-21T00:07:42;12.32;;;9.52;;
37677;SDS011;23517;50.390;8.616;2022-07-21T00:10:11;12.73;;;9.55;;
37677;SDS011;23517;50.390;8.616;2022-07-21T00:12:39;11.93;;;8.52;;
37677;SDS011;23517;50.390;8.616;2022-07-21T00:15:07;18.02;;;10.68;;
37677;SDS011;23517;50.390;8.616;2022-07-21T00:17:35;19.00;;;12.45;;
37677;SDS011;23517;50.390;8.616;2022-07-21T00:20:02;14.40;;;12.55;;
37677;SDS011;23517;50.390;8.616;2022-07-21T00:22:30;21.52;;;12.75;;
37677;SDS011;23517;50.390;8.616;2022-07-21T00:24:57;17.10;;;12.65;;
37677;SDS011;23517;50.390;8.616;2022-07-21T00:27:24;16.10;;;14.40;;
37677;SDS011;23517;50.390;8.616;2022-07-21T00:29:56;16.80;;;14.52;;
37677;SDS011;23517;50.390;8.616;2022-07-21T00:32:23;22.95;;;15.55;;
37677;SDS011;23517;50.390;8.616;2022-07-21T00:34:50;25.15;;;17.17;;
37677;SDS011;23517;50.390;8.616;2022-07-21T00:37:16;22.10;;;15.98;;
37677;SDS011;23517;50.390;8.616;2022-07-21T00:39:43;23.85;;;17.67;;
37677;SDS011;23517;50.390;8.616;2022-07-21T00:42:23;21.17;;;17.98;;
37677;SDS011;23517;50.390;8.616;2022-07-21T00:44:52;21.48;;;18.65;;
37677;SDS011;23517;50.390;8.616;2022-07-21T00:47:20;24.77;;;20.02;;
37677;SDS011;23517;50.390;8.616;2022-07-21T00:49:56;24.88;;;19.38;;
37677;SDS011;23517;50.390;8.616;2022-07-21T00:52:24;24.38;;;20.55;;
37677;SDS011;23517;50.390;8.616;2022-07-21T00:54:51;24.25;;;20.33;;
37677;SDS011;23517;50.390;8.616;2022-07-21T00:57:18;26.13;;;21.08;;
37677;SDS011;23517;50.390;8.616;2022-07-21T00:59:45;24.48;;;20.45;;
37677;SDS011;23517;50.390;8.616;2022-07-21T01:02:12;24.35;;;19.52;;
37677;SDS011;23517;50.390;8.616;2022-07-21T01:04:39;25.90;;;20.67;;
37677;SDS011;23517;50.390;8.616;2022-07-21T01:07:07;23.92;;;20.65;;
37677;SDS011;23517;50.390;8.616;2022-07-21T01:09:34;23.88;;;20.20;;
37677;SDS011;23517;50.390;8.616;2022-07-21T01:12:02;22.88;;;20.30;;
37677;SDS011;23517;50.390;8.616;2022-07-21T01:14:30;21.88;;;18.42;;
37677;SDS011;23517;50.390;8.616;2022-07-21T01:16:57;20.33;;;16.50;;
37677;SDS011;23517;50.390;8.616;2022-07-21T01:19:24;25.38;;;19.15;;
37677;SDS011;23517;50.390;8.616;2022-07-21T01:21:51;23.30;;;17.67;;
37677;SDS011;23517;50.390;8.616;2022-07-21T01:24:18;19.13;;;16.65;;
37677;SDS011;23517;50.390;8.616;2022-07-21T01:26:48;20.63;;;18.33;;
37677;SDS011;23517;50.390;8.616;2022-07-21T01:29:17;21.55;;;18.30;;
37677;SDS011;23517;50.390;8.616;2022-07-21T01:31:45;21.60;;;18.50;;
37677;SDS011;23517;50.390;8.616;2022-07-21T01:34:14;20.25;;;17.75;;
37677;SDS011;23517;50.390;8.616;2022-07-21T01:36:44;22.00;;;15.40;;
37677;SDS011;23517;50.390;8.616;2022-07-21T01:39:11;20.80;;;14.20;;
37677;SDS011;23517;50.390;8.616;2022-07-21T01:41:57;19.30;;;14.32;;
37677;SDS011;23517;50.390;8.616;2022-07-21T01:44:24;19.40;;;13.57;;
37677;SDS011;23517;50.390;8.616;2022-07-21T01:46:51;17.67;;;13.63;;
37677;SDS011;23517;50.390;8.616;2022-07-21T01:49:19;21.67;;;14.02;;
37677;SDS011;23517;50.390;8.616;2022-07-21T01:51:47;19.45;;;13.90;;
37677;SDS011;23517;50.390;8.616;2022-07-21T01:54:15;18.15;;;13.93;;
37677;SDS011;23517;50.390;8.616;2022-07-21T01:56:49;14.95;;;11.85;;
37677;SDS011;23517;50.390;8.616;2022-07-21T01:59:16;13.18;;;9.43;;
37677;SDS011;23517;50.390;8.616;2022-07-21T02:01:43;11.70;;;8.48;;
37677;SDS011;23517;50.390;8.616;2022-07-21T02:04:09;11.32;;;8.18;;
37677;SDS011;23517;50.390;8.616;2022-07-21T02:06:37;12.05;;;7.35;;
37677;SDS011;23517;50.390;8.616;2022-07-21T02:09:03;11.45;;;7.50;;
37677;SDS011;23517;50.390;8.616;2022-07-21T02:11:30;8.57;;;6.43;;
37677;SDS011;23517;50.390;8.616;2022-07-21T02:13:57;10.38;;;6.82;;
37677;SDS011;23517;50.390;8.616;2022-07-21T02:16:24;11.07;;;7.35;;
37677;SDS011;23517;50.390;8.616;2022-07-21T02:18:50;10.35;;;6.50;;
37677;SDS011;23517;50.390;8.616;2022-07-21T02:21:18;10.98;;;6.32;;
37677;SDS011;23517;50.390;8.616;2022-07-21T02:23:45;10.73;;;6.25;;
37677;SDS011;23517;50.390;8.616;2022-07-21T02:26:12;9.60;;;7.30;;
37677;SDS011;23517;50.390;8.616;2022-07-21T02:28:38;11.65;;;7.10;;
37677;SDS011;23517;50.390;8.616;2022-07-21T02:31:06;12.95;;;6.95;;
37677;SDS011;23517;50.390;8.616;2022-07-21T02:33:33;10.70;;;6.85;;
37677;SDS011;23517;50.390;8.616;2022-07-21T02:36:01;9.82;;;6.60;;
37677;SDS011;23517;50.390;8.616;2022-07-21T02:38:28;8.57;;;6.93;;
37677;SDS011;23517;50.390;8.616;2022-07-21T02:40:55;7.10;;;6.40;;
37677;SDS011;23517;50.390;8.616;2022-07-21T02:43:23;12.73;;;7.32;;
37677;SDS011;23517;50.390;8.616;2022-07-21T02:45:50;8.93;;;6.30;;
37677;SDS011;23517;50.390;8.616;2022-07-21T02:48:17;9.05;;;6.85;;
37677;SDS011;23517;50.390;8.616;2022-07-21T02:50:45;12.25;;;7.47;;
37677;SDS011;23517;50.390;8.616;2022-07-21T02:53:13;9.88;;;7.78;;
37677;SDS011;23517;50.390;8.616;2022-07-21T02:55:49;11.02;;;7.75;;
37677;SDS011;23517;50.390;8.616;2022-07-21T02:58:23;10.75;;;7.90;;
37677;SDS011;23517;50.390;8.616;2022-07-21T03:00:55;8.73;;;7.18;;
37677;SDS011;23517;50.390;8.616;2022-07-21T03:03:30;8.77;;;6.90;;
37677;SDS011;23517;50.390;8.616;2022-07-21T03:05:59;10.23;;;7.30;;
37677;SDS011;23517;50.390;8.616;2022-07-21T03:08:27;8.77;;;6.68;;
37677;SDS011;23517;50.390;8.616;2022-07-21T03:10:57;9.23;;;6.75;;
37677;SDS011;23517;50.390;8.616;2022-07-21T03:13:24;7.35;;;6.65;;
37677;SDS011;23517;50.390;8.616;2022-07-21T03:15:51;10.93;;;7.40;;
37677;SDS011;23517;50.390;8.616;2022-07-21T03:18:18;7.85;;;6.55;;
37677;SDS011;23517;50.390;8.616;2022-07-21T03:20:45;8.27;;;6.90;;
37677;SDS011;23517;50.390;8.616;2022-07-21T03:23:12;6.82;;;6.00;;
37677;SDS011;23517;50.390;8.616;2022-07-21T03:25:38;7.25;;;6.30;;
37677;SDS011;23517;50.390;8.616;2022-07-21T03:28:05;8.77;;;6.13;;
37677;SDS011;23517;50.390;8.616;2022-07-21T03:30:33;6.72;;;6.05;;
37677;SDS011;23517;50.390;8.616;2022-07-21T03:33:01;10.18;;;6.10;;
37677;SDS011;23517;50.390;8.616;2022-07-21T03:35:28;8.98;;;5.55;;
37677;SDS011;23517;50.390;8.616;2022-07-21T03:37:58;8.63;;;5.40;;
37677;SDS011;23517;50.390;8.616;2022-07-21T03:40:27;5.30;;;4.80;;
37677;SDS011;23517;50.390;8.616;2022-07-21T03:42:57;8.93;;;5.03;;
37677;SDS011;23517;50.390;8.616;2022-07-21T03:45:27;6.70;;;5.60;;
37677;SDS011;23517;50.390;8.616;2022-07-21T03:47:57;5.75;;;5.15;;
37677;SDS011;23517;50.390;8.616;2022-07-21T03:50:25;9.05;;;5.25;;
37677;SDS011;23517;50.390;8.616;2022-07-21T03:52:52;9.05;;;5.47;;
37677;SDS011;23517;50.390;8.616;2022-07-21T03:55:19;10.13;;;5.35;;
37677;SDS011;23517;50.390;8.616;2022-07-21T03:57:49;7.22;;;5.30;;
37677;SDS011;23517;50.390;8.616;2022-07-21T04:00:33;6.15;;;5.07;;
37677;SDS011;23517;50.390;8.616;2022-07-21T04:03:06;6.15;;;5.50;;
37677;SDS011;23517;50.390;8.616;2022-07-21T04:05:34;10.25;;;5.55;;
37677;SDS011;23517;50.390;8.616;2022-07-21T04:08:02;8.02;;;5.05;;
37677;SDS011;23517;50.390;8.616;2022-07-21T04:10:32;8.45;;;4.82;;
37677;SDS011;23517;50.390;8.616;2022-07-21T04:13:02;7.13;;;4.82;;
37677;SDS011;23517;50.390;8.616;2022-07-21T04:15:32;7.15;;;5.05;;
37677;SDS011;23517;50.390;8.616;2022-07-21T04:18:00;9.20;;;4.68;;
37677;SDS011;23517;50.390;8.616;2022-07-21T04:20:26;6.15;;;4.50;;
37677;SDS011;23517;50.390;8.616;2022-07-21T04:22:54;6.07;;;4.65;;
37677;SDS011;23517;50.390;8.616;2022-07-21T04:25:21;7.13;;;4.22;;
37677;SDS011;23517;50.390;8.616;2022-07-21T04:27:49;6.82;;;4.03;;
37677;SDS011;23517;50.390;8.616;2022-07-21T04:30:20;9.45;;;4.85;;
37677;SDS011;23517;50.390;8.616;2022-07-21T04:32:49;4.22;;;3.78;;
37677;SDS011;23517;50.390;8.616;2022-07-21T04:35:16;5.35;;;3.80;;
37677;SDS011;23517;50.390;8.616;2022-07-21T04:37:45;6.05;;;4.15;;
37677;SDS011;23517;50.390;8.616;2022-07-21T04:40:12;5.85;;;3.97;;
37677;SDS011;23517;50.390;8.616;2022-07-21T04:42:40;5.20;;;4.63;;
37677;SDS011;23517;50.390;8.616;2022-07-21T04:45:08;7.55;;;3.90;;
37677;SDS011;23517;50.390;8.616;2022-07-21T04:47:43;4.50;;;3.45;;
37677;SDS011;23517;50.390;8.616;2022-07-21T04:50:19;8.52;;;4.10;;
37677;SDS011;23517;50.390;8.616;2022-07-21T04:52:50;4.50;;;3.80;;
37677;SDS011;23517;50.390;8.616;2022-07-21T04:55:18;8.20;;;4.47;;
37677;SDS011;23517;50.390;8.616;2022-07-21T04:57:46;9.30;;;3.63;;
37677;SDS011;23517;50.390;8.616;2022-07-21T05:00:16;4.90;;;3.92;;
37677;SDS011;23517;50.390;8.616;2022-07-21T05:02:49;4.65;;;3.40;;
37677;SDS011;23517;50.390;8.616;2022-07-21T05:05:17;5.95;;;3.53;;
37677;SDS011;23517;50.390;8.616;2022-07-21T05:07:45;3.45;;;3.15;;
37677;SDS011;23517;50.390;8.616;2022-07-21T05:10:12;6.53;;;3.05;;
37677;SDS011;23517;50.390;8.616;2022-07-21T05:12:41;4.55;;;3.45;;
37677;SDS011;23517;50.390;8.616;2022-07-21T05:15:08;4.97;;;3.40;;
37677;SDS011;23517;50.390;8.616;2022-07-21T05:17:38;6.18;;;3.00;;
37677;SDS011;23517;50.390;8.616;2022-07-21T05:20:06;6.25;;;3.47;;
37677;SDS011;23517;50.390;8.616;2022-07-21T05:22:34;5.72;;;3.85;;
37677;SDS011;23517;50.390;8.616;2022-07-21T05:25:01;6.47;;;3.80;;
37677;SDS011;23517;50.390;8.616;2022-07-21T05:27:30;4.35;;;3.85;;
37677;SDS011;23517;50.390;8.616;2022-07-21T05:29:57;3.70;;;3.20;;
37677;SDS011;23517;50.390;8.616;2022-07-21T05:32:24;6.25;;;3.90;;
37677;SDS011;23517;50.390;8.616;2022-07-21T05:34:50;8.00;;;3.83;;
37677;SDS011;23517;50.390;8.616;2022-07-21T05:37:17;4.47;;;3.45;;
37677;SDS011;23517;50.390;8.616;2022-07-21T05:39:44;7.95;;;3.67;;
37677;SDS011;23517;50.390;8.616;2022-07-21T05:42:10;8.82;;;3.67;;
37677;SDS011;23517;50.390;8.616;2022-07-21T05:44:37;4.25;;;3.25;;
37677;SDS011;23517;50.390;8.616;2022-07-21T05:47:04;4.03;;;3.63;;
37677;SDS011;23517;50.390;8.616;2022-07-21T05:49:31;6.78;;;3.75;;
37677;SDS011;23517;50.390;8.616;2022-07-21T05:51:57;4.78;;;3.95;;
37677;SDS011;23517;50.390;8.616;2022-07-21T05:54:24;6.40;;;3.50;;
37677;SDS011;23517;50.390;8.616;2022-07-21T05:56:51;6.45;;;3.92;;
37677;SDS011;23517;50.390;8.616;2022-07-21T05:59:17;4.55;;;3.50;;
37677;SDS011;23517;50.390;8.616;2022-07-21T06:01:44;5.50;;;3.90;;
37677;SDS011;23517;50.390;8.616;2022-07-21T06:04:11;4.38;;;3.47;;
37677;SDS011;23517;50.390;8.616;2022-07-21T06:06:39;7.13;;;3.80;;
37677;SDS011;23517;50.390;8.616;2022-07-21T06:09:07;6.07;;;3.53;;
37677;SDS011;23517;50.390;8.616;2022-07-21T06:11:35;3.75;;;3.20;;
37677;SDS011;23517;50.390;8.616;2022-07-21T06:14:02;6.53;;;3.70;;
37677;SDS011;23517;50.390;8.616;2022-07-21T06:16:30;6.50;;;3.33;;
37677;SDS011;23517;50.390;8.616;2022-07-21T06:18:58;7.40;;;3.15;;
37677;SDS011;23517;50.390;8.616;2022-07-21T06:21:25;3.40;;;3.10;;
37677;SDS011;23517;50.390;8.616;2022-07-21T06:23:52;3.67;;;3.35;;
37677;SDS011;23517;50.390;8.616;2022-07-21T06:26:20;6.68;;;3.58;;
37677;SDS011;23517;50.390;8.616;2022-07-21T06:28:46;6.55;;;3.00;;
37677;SDS011;23517;50.390;8.616;2022-07-21T06:31:13;6.63;;;3.30;;
37677;SDS011;23517;50.390;8.616;2022-07-21T06:33:40;4.63;;;3.30;;
37677;SDS011;23517;50.390;8.616;2022-07-21T06:36:07;8.13;;;3.45;;
37677;SDS011;23517;50.390;8.616;2022-07-21T06:38:36;3.53;;;3.20;;
37677;SDS011;23517;50.390;8.616;2022-07-21T06:41:02;5.32;;;4.13;;
37677;SDS011;23517;50.390;8.616;2022-07-21T06:43:29;4.82;;;3.58;;
37677;SDS011;23517;50.390;8.616;2022-07-21T06:45:56;5.38;;;3.97;;
37677;SDS011;23517;50.390;8.616;2022-07-21T06:48:24;4.40;;;3.55;;
37677;SDS011;23517;50.390;8.616;2022-07-21T06:50:52;6.45;;;3.60;;
37677;SDS011;23517;50.390;8.616;2022-07-21T06:53:20;7.80;;;4.05;;
37677;SDS011;23517;50.390;8.616;2022-07-21T06:55:48;6.22;;;4.32;;
37677;SDS011;23517;50.390;8.616;2022-07-21T06:58:25;4.85;;;3.45;;
37677;SDS011;23517;50.390;8.616;2022-07-21T07:00:53;5.47;;;3.72;;
37677;SDS011;23517;50.390;8.616;2022-07-21T07:03:22;5.45;;;3.30;;
37677;SDS011;23517;50.390;8.616;2022-07-21T07:05:52;8.02;;;3.80;;
37677;SDS011;23517;50.390;8.616;2022-07-21T07:08:19;5.28;;;3.72;;
37677;SDS011;23517;50.390;8.616;2022-07-21T07:10:46;5.95;;;3.65;;
37677;SDS011;23517;50.390;8.616;2022-07-21T07:13:13;6.30;;;3.30;;
37677;SDS011;23517;50.390;8.616;2022-07-21T07:16:01;3.35;;;3.05;;
37677;SDS011;23517;50.390;8.616;2022-07-21T07:18:28;5.00;;;3.53;;
37677;SDS011;23517;50.390;8.616;2022-07-21T07:20:54;4.93;;;3.08;;
37677;SDS011;23517;50.390;8.616;2022-07-21T07:23:21;4.13;;;3.30;;
37677;SDS011;23517;50.390;8.616;2022-07-21T07:25:48;5.75;;;3.00;;
37677;SDS011;23517;50.390;8.616;2022-07-21T07:28:16;3.88;;;3.20;;
37677;SDS011;23517;50.390;8.616;2022-07-21T07:30:42;3.90;;;2.90;;
37677;SDS011;23517;50.390;8.616;2022-07-21T07:33:09;4.57;;;3.10;;
37677;SDS011;23517;50.390;8.616;2022-07-21T07:35:36;5.15;;;3.40;;
37677;SDS011;23517;50.390;8.616;2022-07-21T07:38:03;4.60;;;3.10;;
37677;SDS011;23517;50.390;8.616;2022-07-21T07:40:29;5.88;;;3.15;;
37677;SDS011;23517;50.390;8.616;2022-07-21T07:42:57;4.70;;;3.42;;
37677;SDS011;23517;50.390;8.616;2022-07-21T07:45:32;4.65;;;3.22;;
37677;SDS011;23517;50.390;8.616;2022-07-21T07:48:03;4.97;;;3.05;;
37677;SDS011;23517;50.390;8.616;2022-07-21T07:50:31;4.68;;;3.08;;
37677;SDS011;23517;50.390;8.616;2022-07-21T07:52:58;7.38;;;2.92;;
37677;SDS011;23517;50.390;8.616;2022-07-21T07:55:24;3.75;;;3.03;;
37677;SDS011;23517;50.390;8.616;2022-07-21T07:57:51;4.40;;;3.25;;
37677;SDS011;23517;50.390;8.616;2022-07-21T08:00:18;4.55;;;3.63;;
37677;SDS011;23517;50.390;8.616;2022-07-21T08:03:06;4.63;;;3.10;;
37677;SDS011;23517;50.390;8.616;2022-07-21T08:05:33;3.90;;;2.58;;
37677;SDS011;23517;50.390;8.616;2022-07-21T08:07:59;3.42;;;2.88;;
37677;SDS011;23517;50.390;8.616;2022-07-21T08:10:26;5.20;;;2.70;;
37677;SDS011;23517;50.390;8.616;2022-07-21T08:13:13;4.63;;;2.85;;
37677;SDS011;23517;50.390;8.616;2022-07-21T08:15:43;4.25;;;3.15;;
37677;SDS011;23517;50.390;8.616;2022-07-21T08:18:12;4.32;;;2.83;;
37677;SDS011;23517;50.390;8.616;2022-07-21T08:20:40;4.47;;;3.40;;
37677;SDS011;23517;50.390;8.616;2022-07-21T08:23:08;7.03;;;3.35;;
37677;SDS011;23517;50.390;8.616;2022-07-21T08:25:37;4.00;;;2.63;;
37677;SDS011;23517;50.390;8.616;2022-07-21T08:28:05;7.97;;;3.28;;
37677;SDS011;23517;50.390;8.616;2022-07-21T08:30:33;5.15;;;2.75;;
37677;SDS011;23517;50.390;8.616;2022-07-21T08:33:01;5.75;;;3.15;;
37677;SDS011;23517;50.390;8.616;2022-07-21T08:35:29;4.57;;;2.60;;
37677;SDS011;23517;50.390;8.616;2022-07-21T08:38:00;5.63;;;3.28;;
37677;SDS011;23517;50.390;8.616;2022-07-21T08:40:32;8.73;;;3.28;;
37677;SDS011;23517;50.390;8.616;2022-07-21T08:43:06;5.45;;;2.97;;
37677;SDS011;23517;50.390;8.616;2022-07-21T08:45:35;5.13;;;2.92;;
37677;SDS011;23517;50.390;8.616;2022-07-21T08:48:03;3.45;;;2.80;;
37677;SDS011;23517;50.390;8.616;2022-07-21T08:50:34;3.95;;;2.55;;
37677;SDS011;23517;50.390;8.616;2022-07-21T08:53:03;3.20;;;2.70;;
37677;SDS011;23517;50.390;8.616;2022-07-21T08:55:31;6.57;;;2.63;;
37677;SDS011;23517;50.390;8.616;2022-07-21T08:58:01;2.70;;;2.50;;
37677;SDS011;23517;50.390;8.616;2022-07-21T09:00:33;3.42;;;2.47;;
37677;SDS011;23517;50.390;8.616;2022-07-21T09:03:12;3.38;;;2.50;;
37677;SDS011;23517;50.390;8.616;2022-07-21T09:06:07;3.53;;;2.63;;
37677;SDS011;23517;50.390;8.616;2022-07-21T09:08:39;3.70;;;2.33;;
37677;SDS011;23517;50.390;8.616;2022-07-21T09:11:24;3.72;;;2.33;;
37677;SDS011;23517;50.390;8.616;2022-07-21T09:14:11;4.93;;;2.20;;
37677;SDS011;23517;50.390;8.616;2022-07-21T09:19:23;4.95;;;2.70;;
37677;SDS011;23517;50.390;8.616;2022-07-21T09:21:54;2.60;;;2.33;;
37677;SDS011;23517;50.390;8.616;2022-07-21T09:24:23;2.42;;;2.00;;
37677;SDS011;23517;50.390;8.616;2022-07-21T09:27:03;4.30;;;2.25;;
37677;SDS011;23517;50.390;8.616;2022-07-21T09:32:28;4.65;;;2.05;;
37677;SDS011;23517;50.390;8.616;2022-07-21T09:35:00;4.93;;;2.28;;
37677;SDS011;23517;50.390;8.616;2022-07-21T09:37:34;6.40;;;2.83;;
37677;SDS011;23517;50.390;8.616;2022-07-21T09:40:03;2.92;;;2.28;;
37677;SDS011;23517;50.390;8.616;2022-07-21T09:42:48;4.07;;;2.38;;
37677;SDS011;23517;50.390;8.616;2022-07-21T09:45:17;5.80;;;3.00;;
37677;SDS011;23517;50.390;8.616;2022-07-21T09:47:45;4.82;;;2.85;;
37677;SDS011;23517;50.390;8.616;2022-07-21T09:50:14;4.30;;;2.97;;
37677;SDS011;23517;50.390;8.616;2022-07-21T09:52:54;4.18;;;2.90;;
37677;SDS011;23517;50.390;8.616;2022-07-21T09:55:23;3.90;;;2.88;;
37677;SDS011;23517;50.390;8.616;2022-07-21T09:57:50;2.80;;;2.60;;
37677;SDS011;23517;50.390;8.616;2022-07-21T10:00:18;5.97;;;2.80;;
37677;SDS011;23517;50.390;8.616;2022-07-21T10:02:47;4.68;;;2.67;;
37677;SDS011;23517;50.390;8.616;2022-07-21T10:05:16;4.35;;;2.90;;
37677;SDS011;23517;50.390;8.616;2022-07-21T10:07:50;6.28;;;3.20;;
37677;SDS011;23517;50.390;8.616;2022-07-21T10:10:17;3.78;;;2.67;;
37677;SDS011;23517;50.390;8.616;2022-07-21T10:12:47;6.53;;;2.85;;
37677;SDS011;23517;50.390;8.616;2022-07-21T10:15:15;4.90;;;2.80;;
37677;SDS011;23517;50.390;8.616;2022-07-21T10:17:43;4.10;;;2.67;;
37677;SDS011;23517;50.390;8.616;2022-07-21T10:20:11;3.72;;;2.50;;
37677;SDS011;23517;50.390;8.616;2022-07-21T10:25:51;2.63;;;2.28;;
37677;SDS011;23517;50.390;8.616;2022-07-21T10:30:50;3.50;;;2.40;;
37677;SDS011;23517;50.390;8.616;2022-07-21T10:36:56;5.00;;;2.45;;
37677;SDS011;23517;50.390;8.616;2022-07-21T10:41:40;4.82;;;3.00;;
37677;SDS011;23517;50.390;8.616;2022-07-21T10:47:08;4.88;;;2.80;;
37677;SDS011;23517;50.390;8.616;2022-07-21T10:49:53;5.15;;;2.55;;
37677;SDS011;23517;50.390;8.616;2022-07-21T10:53:12;4.38;;;2.60;;
37677;SDS011;23517;50.390;8.616;2022-07-21T10:55:23;4.40;;;2.35;;
37677;SDS011;23517;50.390;8.616;2022-07-21T10:58:10;3.58;;;2.15;;
37677;SDS011;23517;50.390;8.616;2022-07-21T11:00:58;4.28;;;2.30;;
37677;SDS011;23517;50.390;8.616;2022-07-21T11:03:36;3.80;;;2.45;;
37677;SDS011;23517;50.390;8.616;2022-07-21T11:08:36;4.07;;;2.60;;
37677;SDS011;23517;50.390;8.616;2022-07-21T11:19:33;2.50;;;2.30;;
37677;SDS011;23517;50.390;8.616;2022-07-21T11:22:19;4.07;;;2.60;;
37677;SDS011;23517;50.390;8.616;2022-07-21T11:24:55;3.15;;;2.60;;
37677;SDS011;23517;50.390;8.616;2022-07-21T11:27:29;4.70;;;2.38;;
37677;SDS011;23517;50.390;8.616;2022-07-21T11:30:03;3.80;;;2.80;;
37677;SDS011;23517;50.390;8.616;2022-07-21T11:32:33;2.83;;;2.30;;
37677;SDS011;23517;50.390;8.616;2022-07-21T11:35:01;4.75;;;2.60;;
37677;SDS011;23517;50.390;8.616;2022-07-21T11:37:35;3.55;;;2.42;;
37677;SDS011;23517;50.390;8.616;2022-07-21T11:40:15;4.10;;;2.72;;
37677;SDS011;23517;50.390;8.616;2022-07-21T11:42:46;2.83;;;2.50;;
37677;SDS011;23517;50.390;8.616;2022-07-21T11:45:17;3.67;;;2.60;;
37677;SDS011;23517;50.390;8.616;2022-07-21T11:47:43;2.75;;;2.13;;
37677;SDS011;23517;50.390;8.616;2022-07-21T11:50:17;3.20;;;2.50;;
37677;SDS011;23517;50.390;8.616;2022-07-21T11:52:44;4.22;;;2.45;;
37677;SDS011;23517;50.390;8.616;2022-07-21T11:55:12;3.30;;;2.50;;
37677;SDS011;23517;50.390;8.616;2022-07-21T11:57:45;3.33;;;2.47;;
37677;SDS011;23517;50.390;8.616;2022-07-21T12:00:14;6.50;;;2.22;;
37677;SDS011;23517;50.390;8.616;2022-07-21T12:02:46;4.40;;;2.22;;
37677;SDS011;23517;50.390;8.616;2022-07-21T12:05:15;2.42;;;2.03;;
37677;SDS011;23517;50.390;8.616;2022-07-21T12:07:43;4.25;;;2.33;;
37677;SDS011;23517;50.390;8.616;2022-07-21T12:10:26;4.15;;;2.25;;
37677;SDS011;23517;50.390;8.616;2022-07-21T12:13:02;4.00;;;1.98;;
37677;SDS011;23517;50.390;8.616;2022-07-21T12:15:32;3.47;;;1.85;;
37677;SDS011;23517;50.390;8.616;2022-07-21T12:18:05;3.92;;;2.20;;
37677;SDS011;23517;50.390;8.616;2022-07-21T12:23:25;3.85;;;1.80;;
37677;SDS011;23517;50.390;8.616;2022-07-21T12:25:55;3.28;;;1.73;;
37677;SDS011;23517;50.390;8.616;2022-07-21T12:31:13;4.10;;;1.85;;
37677;SDS011;23517;50.390;8.616;2022-07-21T12:33:47;2.78;;;1.90;;
37677;SDS011;23517;50.390;8.616;2022-07-21T12:36:35;6.05;;;1.73;;
37677;SDS011;23517;50.390;8.616;2022-07-21T12:42:16;2.13;;;1.80;;
37677;SDS011;23517;50.390;8.616;2022-07-21T12:44:57;4.07;;;1.92;;
37677;SDS011;23517;50.390;8.616;2022-07-21T12:47:24;4.28;;;1.85;;
37677;SDS011;23517;50.390;8.616;2022-07-21T12:49:56;3.15;;;2.03;;
37677;SDS011;23517;50.390;8.616;2022-07-21T12:52:39;2.83;;;2.10;;
37677;SDS011;23517;50.390;8.616;2022-07-21T12:55:07;3.33;;;2.03;;
37677;SDS011;23517;50.390;8.616;2022-07-21T12:57:34;4.93;;;2.20;;
37677;SDS011;23517;50.390;8.616;2022-07-21T13:00:01;2.40;;;2.20;;
37677;SDS011;23517;50.390;8.616;2022-07-21T13:02:29;5.13;;;2.17;;
37677;SDS011;23517;50.390;8.616;2022-07-21T13:04:56;4.22;;;2.13;;
37677;SDS011;23517;50.390;8.616;2022-07-21T13:07:23;2.50;;;1.90;;
37677;SDS011;23517;50.390;8.616;2022-07-21T13:09:49;5.03;;;2.50;;
37677;SDS011;23517;50.390;8.616;2022-07-21T13:12:16;4.15;;;2.55;;
37677;SDS011;23517;50.390;8.616;2022-07-21T13:14:43;4.00;;;2.63;;
37677;SDS011;23517;50.390;8.616;2022-07-21T13:17:09;3.33;;;2.55;;
37677;SDS011;23517;50.390;8.616;2022-07-21T13:19:36;7.15;;;2.50;;
37677;SDS011;23517;50.390;8.616;2022-07-21T13:22:03;6.80;;;2.25;;
37677;SDS011;23517;50.390;8.616;2022-07-21T13:24:31;3.70;;;2.22;;
37677;SDS011;23517;50.390;8.616;2022-07-21T13:26:57;3.35;;;2.65;;
37677;SDS011;23517;50.390;8.616;2022-07-21T13:29:24;5.78;;;2.70;;
37677;SDS011;23517;50.390;8.616;2022-07-21T13:31:51;4.15;;;2.20;;
37677;SDS011;23517;50.390;8.616;2022-07-21T13:34:18;3.50;;;2.50;;
37677;SDS011;23517;50.390;8.616;2022-07-21T13:36:44;6.03;;;2.78;;
37677;SDS011;23517;50.390;8.616;2022-07-21T13:39:11;4.57;;;2.70;;
37677;SDS011;23517;50.390;8.616;2022-07-21T13:41:58;7.07;;;2.60;;
37677;SDS011;23517;50.390;8.616;2022-07-21T13:44:45;5.47;;;2.53;;
37677;SDS011;23517;50.390;8.616;2022-07-21T13:47:11;5.40;;;2.75;;
37677;SDS011;23517;50.390;8.616;2022-07-21T13:49:38;6.82;;;2.70;;
37677;SDS011;23517;50.390;8.616;2022-07-21T13:52:05;5.40;;;2.55;;
37677;SDS011;23517;50.390;8.616;2022-07-21T13:54:34;3.08;;;2.42;;
37677;SDS011;23517;50.390;8.616;2022-07-21T13:57:01;3.60;;;2.22;;
37677;SDS011;23517;50.390;8.616;2022-07-21T13:59:27;2.78;;;2.47;;
37677;SDS011;23517;50.390;8.616;2022-07-21T14:01:54;3.30;;;2.70;;
37677;SDS011;23517;50.390;8.616;2022-07-21T14:04:22;3.33;;;2.50;;
37677;SDS011;23517;50.390;8.616;2022-07-21T14:06:49;4.72;;;2.83;;
37677;SDS011;23517;50.390;8.616;2022-07-21T14:09:18;4.15;;;2.83;;
37677;SDS011;23517;50.390;8.616;2022-07-21T14:11:45;6.93;;;2.83;;
37677;SDS011;23517;50.390;8.616;2022-07-21T14:14:14;3.28;;;2.83;;
37677;SDS011;23517;50.390;8.616;2022-07-21T14:16:47;6.60;;;3.10;;
37677;SDS011;23517;50.390;8.616;2022-07-21T14:19:15;5.00;;;2.80;;
37677;SDS011;23517;50.390;8.616;2022-07-21T14:21:42;4.50;;;2.92;;
37677;SDS011;23517;50.390;8.616;2022-07-21T14:24:09;4.55;;;2.67;;
37677;SDS011;23517;50.390;8.616;2022-07-21T14:26:56;7.18;;;2.97;;
37677;SDS011;23517;50.390;8.616;2022-07-21T14:29:23;5.47;;;3.28;;
37677;SDS011;23517;50.390;8.616;2022-07-21T14:31:50;5.03;;;3.72;;
37677;SDS011;23517;50.390;8.616;2022-07-21T14:34:17;3.97;;;3.15;;
37677;SDS011;23517;50.390;8.616;2022-07-21T14:36:44;4.25;;;3.08;;
37677;SDS011;23517;50.390;8.616;2022-07-21T14:39:13;5.05;;;3.10;;
37677;SDS011;23517;50.390;8.616;2022-07-21T14:41:41;6.85;;;2.90;;
37677;SDS011;23517;50.390;8.616;2022-07-21T14:44:07;4.63;;;2.80;;
37677;SDS011;23517;50.390;8.616;2022-07-21T14:46:34;4.05;;;3.13;;
37677;SDS011;23517;50.390;8.616;2022-07-21T14:49:01;5.03;;;3.08;;
37677;SDS011;23517;50.390;8.616;2022-07-21T14:51:29;7.22;;;3.20;;
37677;SDS011;23517;50.390;8.616;2022-07-21T14:53:56;6.00;;;3.20;;
37677;SDS011;23517;50.390;8.616;2022-07-21T14:56:23;6.22;;;3.40;;
37677;SDS011;23517;50.390;8.616;2022-07-21T14:59:10;5.32;;;3.40;;
37677;SDS011;23517;50.390;8.616;2022-07-21T15:01:37;7.70;;;3.25;;
37677;SDS011;23517;50.390;8.616;2022-07-21T15:04:03;3.47;;;3.08;;
37677;SDS011;23517;50.390;8.616;2022-07-21T15:06:30;6.53;;;3.40;;
37677;SDS011;23517;50.390;8.616;2022-07-21T15:08:57;4.35;;;3.05;;
37677;SDS011;23517;50.390;8.616;2022-07-21T15:11:24;4.68;;;3.30;;
37677;SDS011;23517;50.390;8.616;2022-07-21T15:13:52;5.47;;;2.70;;
37677;SDS011;23517;50.390;8.616;2022-07-21T15:16:20;4.55;;;3.00;;
37677;SDS011;23517;50.390;8.616;2022-07-21T15:18:47;5.35;;;3.00;;
37677;SDS011;23517;50.390;8.616;2022-07-21T15:21:13;6.95;;;3.03;;
37677;SDS011;23517;50.390;8.616;2022-07-21T15:23:40;5.32;;;2.95;;
37677;SDS011;23517;50.390;8.616;2022-07-21T15:26:07;6.32;;;2.92;;
37677;SDS011;23517;50.390;8.616;2022-07-21T15:28:34;4.65;;;3.03;;
37677;SDS011;23517;50.390;8.616;2022-07-21T15:31:01;5.55;;;3.15;;
37677;SDS011;23517;50.390;8.616;2022-07-21T15:33:31;7.05;;;2.97;;
37677;SDS011;23517;50.390;8.616;2022-07-21T15:35:59;8.85;;;3.15;;